sensor_id;sensor_type;location;lat;lon;timestamp;pressure;altitude;pressure_sealevel;temperature;humidity
11172;BME280;5642;50.830;12.082;2023-06-10T00:01:38;99246.34;;;18.06;36.23
11172;BME280;5642;50.830;12.082;2023-06-10T00:04:05;99282.28;;;18.24;36.27
11172;BME280;5642;50.830;12.082;2023-06-10T00:06:31;99268.22;;;18.10;36.36
11172;BME280;5642;50.830;12.082;2023-06-10T00:09:05;99276.06;;;18.11;36.39
11172;BME280;5642;50.830;12.082;2023-06-10T00:11:32;99278.91;;;18.08;36.38
11172;BME280;5642;50.830;12.082;2023-06-10T00:13:59;99241.28;;;17.89;36.59
11172;BME280;5642;50.830;12.082;2023-06-10T00:16:25;99224.19;;;17.80;36.53
11172;BME280;5642;50.830;12.082;2023-06-10T00:18:51;99262.94;;;17.95;36.71
11172;BME280;5642;50.830;12.082;2023-06-10T00:21:17;99272.88;;;17.92;36.73
11172;BME280;5642;50.830;12.082;2023-06-10T00:23:44;99279.13;;;17.91;36.70
11172;BME280;5642;50.830;12.082;2023-06-10T00:26:10;99283.78;;;17.87;36.82
11172;BME280;5642;50.830;12.082;2023-06-10T00:28:36;99261.06;;;17.69;36.88
11172;BME280;5642;50.830;12.082;2023-06-10T00:31:02;99252.78;;;17.61;36.92
11172;BME280;5642;50.830;12.082;2023-06-10T00:33:30;99283.03;;;17.71;36.88
11172;BME280;5642;50.830;12.082;2023-06-10T00:35:56;99277.47;;;17.62;37.06
11172;BME280;5642;50.830;12.082;2023-06-10T00:38:22;99267.50;;;17.51;37.11
11172;BME280;5642;50.830;12.082;2023-06-10T00:40:49;99296.94;;;17.60;37.14
11172;BME280;5642;50.830;12.082;2023-06-10T00:43:15;99288.59;;;17.52;37.04
11172;BME280;5642;50.830;12.082;2023-06-10T00:45:41;99288.69;;;17.51;37.22
11172;BME280;5642;50.830;12.082;2023-06-10T00:48:07;99278.66;;;17.42;37.22
11172;BME280;5642;50.830;12.082;2023-06-10T00:50:33;99268.53;;;17.34;37.43
11172;BME280;5642;50.830;12.082;2023-06-10T00:53:00;99288.22;;;17.44;37.42
11172;BME280;5642;50.830;12.082;2023-06-10T00:55:27;99284.88;;;17.41;37.29
11172;BME280;5642;50.830;12.082;2023-06-10T00:57:53;99294.53;;;17.42;37.39
11172;BME280;5642;50.830;12.082;2023-06-10T01:00:20;99286.72;;;17.40;37.45
11172;BME280;5642;50.830;12.082;2023-06-10T01:02:46;99289.38;;;17.40;37.47
11172;BME280;5642;50.830;12.082;2023-06-10T01:05:12;99257.00;;;17.21;37.74
11172;BME280;5642;50.830;12.082;2023-06-10T01:07:45;99260.31;;;17.25;37.77
11172;BME280;5642;50.830;12.082;2023-06-10T01:10:21;99283.69;;;17.32;37.81
11172;BME280;5642;50.830;12.082;2023-06-10T01:13:02;99288.50;;;17.26;37.86
11172;BME280;5642;50.830;12.082;2023-06-10T01:15:30;99281.66;;;17.21;37.60
11172;BME280;5642;50.830;12.082;2023-06-10T01:18:01;99291.41;;;17.21;37.75
11172;BME280;5642;50.830;12.082;2023-06-10T01:20:29;99295.97;;;17.19;37.68
11172;BME280;5642;50.830;12.082;2023-06-10T01:22:56;99291.13;;;17.11;37.71
11172;BME280;5642;50.830;12.082;2023-06-10T01:25:27;99271.28;;;17.04;37.98
11172;BME280;5642;50.830;12.082;2023-06-10T01:28:21;99276.44;;;17.06;37.94
11172;BME280;5642;50.830;12.082;2023-06-10T01:31:10;99287.03;;;17.06;38.04
11172;BME280;5642;50.830;12.082;2023-06-10T01:33:43;99289.78;;;17.04;38.05
11172;BME280;5642;50.830;12.082;2023-06-10T01:36:12;99290.66;;;17.05;38.16
11172;BME280;5642;50.830;12.082;2023-06-10T01:38:40;99274.63;;;16.92;38.20
11172;BME280;5642;50.830;12.082;2023-06-10T01:41:08;99282.31;;;16.97;38.04
11172;BME280;5642;50.830;12.082;2023-06-10T01:43:37;99288.53;;;16.96;38.08
11172;BME280;5642;50.830;12.082;2023-06-10T01:46:05;99280.69;;;16.94;38.11
11172;BME280;5642;50.830;12.082;2023-06-10T01:48:32;99287.84;;;16.92;38.26
11172;BME280;5642;50.830;12.082;2023-06-10T01:50:58;99297.78;;;16.89;38.27
11172;BME280;5642;50.830;12.082;2023-06-10T01:53:24;99290.22;;;16.82;38.24
11172;BME280;5642;50.830;12.082;2023-06-10T01:55:50;99317.41;;;16.84;38.42
11172;BME280;5642;50.830;12.082;2023-06-10T01:58:16;99276.25;;;16.65;38.48
11172;BME280;5642;50.830;12.082;2023-06-10T02:00:42;99324.84;;;16.78;38.53
11172;BME280;5642;50.830;12.082;2023-06-10T02:03:08;99301.75;;;16.66;38.40
11172;BME280;5642;50.830;12.082;2023-06-10T02:05:34;99314.53;;;16.73;38.62
11172;BME280;5642;50.830;12.082;2023-06-10T02:08:00;99328.72;;;16.72;38.54
11172;BME280;5642;50.830;12.082;2023-06-10T02:10:27;99330.69;;;16.69;38.48
11172;BME280;5642;50.830;12.082;2023-06-10T02:12:52;99304.41;;;16.50;38.85
11172;BME280;5642;50.830;12.082;2023-06-10T02:15:18;99322.06;;;16.65;38.75
11172;BME280;5642;50.830;12.082;2023-06-10T02:17:45;99319.50;;;16.64;38.76
11172;BME280;5642;50.830;12.082;2023-06-10T02:20:11;99307.53;;;16.57;38.66
11172;BME280;5642;50.830;12.082;2023-06-10T02:22:37;99303.09;;;16.57;38.81
11172;BME280;5642;50.830;12.082;2023-06-10T02:25:05;99315.91;;;16.65;38.76
11172;BME280;5642;50.830;12.082;2023-06-10T02:27:31;99309.16;;;16.59;38.84
11172;BME280;5642;50.830;12.082;2023-06-10T02:29:57;99314.53;;;16.58;38.92
11172;BME280;5642;50.830;12.082;2023-06-10T02:32:23;99308.94;;;16.48;38.97
11172;BME280;5642;50.830;12.082;2023-06-10T02:34:49;99305.53;;;16.46;38.98
11172;BME280;5642;50.830;12.082;2023-06-10T02:37:15;99326.69;;;16.46;39.00
11172;BME280;5642;50.830;12.082;2023-06-10T02:39:41;99333.56;;;16.49;39.03
11172;BME280;5642;50.830;12.082;2023-06-10T02:42:07;99323.34;;;16.42;39.04
11172;BME280;5642;50.830;12.082;2023-06-10T02:44:33;99312.34;;;16.34;39.08
11172;BME280;5642;50.830;12.082;2023-06-10T02:46:59;99328.75;;;16.41;39.16
11172;BME280;5642;50.830;12.082;2023-06-10T02:49:26;99307.59;;;16.25;39.15
11172;BME280;5642;50.830;12.082;2023-06-10T02:51:54;99312.69;;;16.28;39.19
11172;BME280;5642;50.830;12.082;2023-06-10T02:54:23;99313.03;;;16.22;39.45
11172;BME280;5642;50.830;12.082;2023-06-10T02:56:49;99336.25;;;16.33;39.36
11172;BME280;5642;50.830;12.082;2023-06-10T02:59:15;99331.19;;;16.28;39.22
11172;BME280;5642;50.830;12.082;2023-06-10T03:01:42;99329.69;;;16.24;39.31
11172;BME280;5642;50.830;12.082;2023-06-10T03:04:08;99343.81;;;16.39;39.37
11172;BME280;5642;50.830;12.082;2023-06-10T03:06:34;99341.19;;;16.39;39.23
11172;BME280;5642;50.830;12.082;2023-06-10T03:09:02;99360.28;;;16.44;39.33
11172;BME280;5642;50.830;12.082;2023-06-10T03:11:33;99361.13;;;16.44;39.29
11172;BME280;5642;50.830;12.082;2023-06-10T03:13:59;99350.72;;;16.41;39.34
11172;BME280;5642;50.830;12.082;2023-06-10T03:16:25;99368.06;;;16.47;39.29
11172;BME280;5642;50.830;12.082;2023-06-10T03:18:53;99361.81;;;16.48;39.36
11172;BME280;5642;50.830;12.082;2023-06-10T03:21:19;99367.84;;;16.50;39.41
11172;BME280;5642;50.830;12.082;2023-06-10T03:23:46;99373.84;;;16.54;39.48
11172;BME280;5642;50.830;12.082;2023-06-10T03:26:12;99373.75;;;16.55;39.49
11172;BME280;5642;50.830;12.082;2023-06-10T03:28:40;99370.94;;;16.58;39.48
11172;BME280;5642;50.830;12.082;2023-06-10T03:31:06;99373.50;;;16.60;39.37
11172;BME280;5642;50.830;12.082;2023-06-10T03:33:32;99382.81;;;16.67;39.48
11172;BME280;5642;50.830;12.082;2023-06-10T03:35:58;99383.41;;;16.72;39.25
11172;BME280;5642;50.830;12.082;2023-06-10T03:38:24;99338.13;;;16.47;39.37
11172;BME280;5642;50.830;12.082;2023-06-10T03:40:50;99358.81;;;16.70;39.32
11172;BME280;5642;50.830;12.082;2023-06-10T03:43:16;99350.88;;;16.70;39.21
11172;BME280;5642;50.830;12.082;2023-06-10T03:45:42;99380.72;;;16.88;39.35
11172;BME280;5642;50.830;12.082;2023-06-10T03:48:08;99381.22;;;16.94;39.14
11172;BME280;5642;50.830;12.082;2023-06-10T03:50:35;99380.69;;;17.03;39.25
11172;BME280;5642;50.830;12.082;2023-06-10T03:53:02;99381.13;;;17.11;39.10
11172;BME280;5642;50.830;12.082;2023-06-10T03:55:28;99369.13;;;17.34;38.87
11172;BME280;5642;50.830;12.082;2023-06-10T03:57:54;99370.06;;;17.91;38.12
11172;BME280;5642;50.830;12.082;2023-06-10T04:00:20;99355.81;;;18.35;37.46
11172;BME280;5642;50.830;12.082;2023-06-10T04:02:50;99375.63;;;18.97;36.97
11172;BME280;5642;50.830;12.082;2023-06-10T04:05:19;99377.41;;;19.36;36.58
11172;BME280;5642;50.830;12.082;2023-06-10T04:07:51;99385.22;;;19.52;36.41
11172;BME280;5642;50.830;12.082;2023-06-10T04:10:17;99381.53;;;19.67;36.64
11172;BME280;5642;50.830;12.082;2023-06-10T04:12:43;99378.50;;;19.97;36.52
11172;BME280;5642;50.830;12.082;2023-06-10T04:15:10;99368.56;;;19.88;36.09
11172;BME280;5642;50.830;12.082;2023-06-10T04:17:37;99385.81;;;20.19;36.33
11172;BME280;5642;50.830;12.082;2023-06-10T04:20:03;99384.88;;;20.20;36.62
11172;BME280;5642;50.830;12.082;2023-06-10T04:22:32;99326.94;;;20.00;36.52
11172;BME280;5642;50.830;12.082;2023-06-10T04:24:59;99382.19;;;20.45;36.47
11172;BME280;5642;50.830;12.082;2023-06-10T04:27:25;99384.63;;;20.48;36.73
11172;BME280;5642;50.830;12.082;2023-06-10T04:29:51;99366.78;;;20.38;37.02
11172;BME280;5642;50.830;12.082;2023-06-10T04:32:18;99374.88;;;20.36;37.00
11172;BME280;5642;50.830;12.082;2023-06-10T04:34:44;99341.06;;;20.13;37.28
11172;BME280;5642;50.830;12.082;2023-06-10T04:37:10;99387.63;;;20.67;36.81
11172;BME280;5642;50.830;12.082;2023-06-10T04:39:36;99374.25;;;21.28;36.50
11172;BME280;5642;50.830;12.082;2023-06-10T04:42:02;99378.50;;;22.10;35.40
11172;BME280;5642;50.830;12.082;2023-06-10T04:44:28;99373.06;;;22.88;34.93
11172;BME280;5642;50.830;12.082;2023-06-10T04:46:58;99361.00;;;23.57;34.39
11172;BME280;5642;50.830;12.082;2023-06-10T04:49:24;99373.94;;;24.43;33.33
11172;BME280;5642;50.830;12.082;2023-06-10T04:51:50;99367.44;;;25.15;33.04
11172;BME280;5642;50.830;12.082;2023-06-10T04:54:17;99367.19;;;25.84;32.67
11172;BME280;5642;50.830;12.082;2023-06-10T04:56:43;99372.28;;;26.51;32.19
11172;BME280;5642;50.830;12.082;2023-06-10T04:59:10;99375.00;;;27.14;32.00
11172;BME280;5642;50.830;12.082;2023-06-10T05:01:36;99368.75;;;27.75;31.67
11172;BME280;5642;50.830;12.082;2023-06-10T05:04:02;99378.19;;;28.30;31.48
11172;BME280;5642;50.830;12.082;2023-06-10T05:06:30;99343.28;;;28.71;31.37
11172;BME280;5642;50.830;12.082;2023-06-10T05:08:56;99360.94;;;29.40;31.10
11172;BME280;5642;50.830;12.082;2023-06-10T05:11:22;99367.63;;;29.92;30.91
11172;BME280;5642;50.830;12.082;2023-06-10T05:13:48;99369.97;;;30.43;30.24
11172;BME280;5642;50.830;12.082;2023-06-10T05:16:14;99367.09;;;30.83;30.22
11172;BME280;5642;50.830;12.082;2023-06-10T05:18:41;99332.06;;;30.90;29.90
11172;BME280;5642;50.830;12.082;2023-06-10T05:21:07;99359.13;;;31.35;29.86
11172;BME280;5642;50.830;12.082;2023-06-10T05:23:33;99370.72;;;31.67;29.75
11172;BME280;5642;50.830;12.082;2023-06-10T05:26:01;99377.94;;;31.89;29.81
11172;BME280;5642;50.830;12.082;2023-06-10T05:28:27;99367.56;;;32.07;29.59
11172;BME280;5642;50.830;12.082;2023-06-10T05:30:56;99356.09;;;32.20;29.42
11172;BME280;5642;50.830;12.082;2023-06-10T05:33:25;99366.16;;;32.41;29.38
11172;BME280;5642;50.830;12.082;2023-06-10T05:35:52;99332.44;;;32.43;28.98
11172;BME280;5642;50.830;12.082;2023-06-10T05:38:18;99364.91;;;32.87;29.18
11172;BME280;5642;50.830;12.082;2023-06-10T05:40:45;99349.91;;;32.91;28.59
11172;BME280;5642;50.830;12.082;2023-06-10T05:43:12;99339.56;;;33.01;28.80
11172;BME280;5642;50.830;12.082;2023-06-10T05:45:38;99352.16;;;33.24;28.70
11172;BME280;5642;50.830;12.082;2023-06-10T05:48:06;99338.81;;;33.29;28.17
11172;BME280;5642;50.830;12.082;2023-06-10T05:50:46;99333.50;;;33.42;28.59
11172;BME280;5642;50.830;12.082;2023-06-10T05:53:17;99361.16;;;33.73;28.36
11172;BME280;5642;50.830;12.082;2023-06-10T05:55:44;99340.72;;;33.84;28.26
11172;BME280;5642;50.830;12.082;2023-06-10T05:58:11;99335.75;;;33.88;28.14
11172;BME280;5642;50.830;12.082;2023-06-10T06:00:41;99336.28;;;34.11;27.84
11172;BME280;5642;50.830;12.082;2023-06-10T06:03:10;99362.19;;;34.41;27.87
11172;BME280;5642;50.830;12.082;2023-06-10T06:05:39;99371.09;;;34.70;27.80
11172;BME280;5642;50.830;12.082;2023-06-10T06:08:05;99366.16;;;34.93;27.67
11172;BME280;5642;50.830;12.082;2023-06-10T06:10:31;99373.34;;;35.20;27.40
11172;BME280;5642;50.830;12.082;2023-06-10T06:12:58;99368.75;;;35.47;27.46
11172;BME280;5642;50.830;12.082;2023-06-10T06:15:24;99365.81;;;35.68;27.28
11172;BME280;5642;50.830;12.082;2023-06-10T06:17:51;99351.63;;;35.73;27.45
11172;BME280;5642;50.830;12.082;2023-06-10T06:20:22;99380.28;;;36.02;27.05
11172;BME280;5642;50.830;12.082;2023-06-10T06:22:48;99351.31;;;36.14;26.79
11172;BME280;5642;50.830;12.082;2023-06-10T06:25:15;99377.00;;;36.58;27.08
11172;BME280;5642;50.830;12.082;2023-06-10T06:27:41;99370.19;;;36.80;26.65
11172;BME280;5642;50.830;12.082;2023-06-10T06:30:09;99361.72;;;36.95;26.56
11172;BME280;5642;50.830;12.082;2023-06-10T06:32:37;99369.81;;;37.14;26.45
11172;BME280;5642;50.830;12.082;2023-06-10T06:35:03;99379.31;;;37.37;26.59
11172;BME280;5642;50.830;12.082;2023-06-10T06:37:35;99355.94;;;37.41;26.21
11172;BME280;5642;50.830;12.082;2023-06-10T06:40:02;99377.47;;;37.80;26.05
11172;BME280;5642;50.830;12.082;2023-06-10T06:42:29;99354.03;;;37.91;26.07
11172;BME280;5642;50.830;12.082;2023-06-10T06:44:55;99382.06;;;38.29;26.45
11172;BME280;5642;50.830;12.082;2023-06-10T06:47:22;99361.50;;;38.38;25.86
11172;BME280;5642;50.830;12.082;2023-06-10T06:49:48;99366.22;;;38.68;25.90
11172;BME280;5642;50.830;12.082;2023-06-10T06:52:15;99382.03;;;38.84;25.90
11172;BME280;5642;50.830;12.082;2023-06-10T06:54:41;99357.44;;;38.96;25.59
11172;BME280;5642;50.830;12.082;2023-06-10T06:57:07;99388.59;;;39.43;25.56
11172;BME280;5642;50.830;12.082;2023-06-10T06:59:33;99359.16;;;39.50;25.29
11172;BME280;5642;50.830;12.082;2023-06-10T07:02:00;99377.31;;;39.86;25.59
11172;BME280;5642;50.830;12.082;2023-06-10T07:04:27;99383.00;;;40.19;25.28
11172;BME280;5642;50.830;12.082;2023-06-10T07:06:55;99395.03;;;40.53;25.12
11172;BME280;5642;50.830;12.082;2023-06-10T07:09:22;99397.69;;;40.88;24.91
11172;BME280;5642;50.830;12.082;2023-06-10T07:11:57;99370.25;;;41.05;24.86
11172;BME280;5642;50.830;12.082;2023-06-10T07:14:33;99364.47;;;41.18;24.66
11172;BME280;5642;50.830;12.082;2023-06-10T07:17:01;99360.91;;;41.34;24.67
11172;BME280;5642;50.830;12.082;2023-06-10T07:19:28;99367.03;;;41.70;24.46
11172;BME280;5642;50.830;12.082;2023-06-10T07:22:00;99360.78;;;41.91;24.41
11172;BME280;5642;50.830;12.082;2023-06-10T07:24:38;99388.78;;;42.27;24.06
11172;BME280;5642;50.830;12.082;2023-06-10T07:27:04;99388.00;;;42.31;24.30
11172;BME280;5642;50.830;12.082;2023-06-10T07:29:32;99378.75;;;42.37;23.96
11172;BME280;5642;50.830;12.082;2023-06-10T07:31:59;99384.16;;;42.49;23.54
11172;BME280;5642;50.830;12.082;2023-06-10T07:34:31;99391.38;;;42.55;23.82
11172;BME280;5642;50.830;12.082;2023-06-10T07:37:01;99388.06;;;42.75;24.00
11172;BME280;5642;50.830;12.082;2023-06-10T07:39:27;99390.94;;;43.12;23.69
11172;BME280;5642;50.830;12.082;2023-06-10T07:41:57;99392.44;;;43.51;23.52
11172;BME280;5642;50.830;12.082;2023-06-10T07:44:23;99398.03;;;43.93;23.18
11172;BME280;5642;50.830;12.082;2023-06-10T07:46:49;99391.03;;;44.18;23.11
11172;BME280;5642;50.830;12.082;2023-06-10T07:49:15;99377.50;;;44.21;23.28
11172;BME280;5642;50.830;12.082;2023-06-10T07:51:45;99389.56;;;44.47;22.90
11172;BME280;5642;50.830;12.082;2023-06-10T07:54:11;99397.78;;;44.42;22.81
11172;BME280;5642;50.830;12.082;2023-06-10T07:56:38;99380.34;;;44.31;22.84
11172;BME280;5642;50.830;12.082;2023-06-10T07:59:05;99393.00;;;44.74;22.89
11172;BME280;5642;50.830;12.082;2023-06-10T08:01:31;99364.84;;;45.03;22.70
11172;BME280;5642;50.830;12.082;2023-06-10T08:03:58;99396.72;;;45.31;22.57
11172;BME280;5642;50.830;12.082;2023-06-10T08:06:24;99390.69;;;45.54;21.99
11172;BME280;5642;50.830;12.082;2023-06-10T08:08:51;99389.84;;;45.89;22.41
11172;BME280;5642;50.830;12.082;2023-06-10T08:11:17;99384.78;;;46.16;21.82
11172;BME280;5642;50.830;12.082;2023-06-10T08:13:48;99358.75;;;46.22;22.01
11172;BME280;5642;50.830;12.082;2023-06-10T08:16:14;99379.41;;;46.50;21.72
11172;BME280;5642;50.830;12.082;2023-06-10T08:18:41;99387.09;;;46.73;21.53
11172;BME280;5642;50.830;12.082;2023-06-10T08:21:07;99378.28;;;46.61;21.30
11172;BME280;5642;50.830;12.082;2023-06-10T08:23:33;99389.34;;;46.61;21.70
11172;BME280;5642;50.830;12.082;2023-06-10T08:25:59;99385.50;;;46.47;21.45
11172;BME280;5642;50.830;12.082;2023-06-10T08:28:25;99389.13;;;46.53;21.47
11172;BME280;5642;50.830;12.082;2023-06-10T08:30:51;99378.22;;;46.71;21.37
11172;BME280;5642;50.830;12.082;2023-06-10T08:33:18;99388.72;;;46.80;21.63
11172;BME280;5642;50.830;12.082;2023-06-10T08:35:46;99379.81;;;46.88;21.03
11172;BME280;5642;50.830;12.082;2023-06-10T08:38:13;99381.69;;;47.02;21.43
11172;BME280;5642;50.830;12.082;2023-06-10T08:40:39;99389.63;;;47.14;21.01
11172;BME280;5642;50.830;12.082;2023-06-10T08:43:32;99385.78;;;47.49;20.85
11172;BME280;5642;50.830;12.082;2023-06-10T08:46:00;99388.88;;;47.42;20.70
11172;BME280;5642;50.830;12.082;2023-06-10T08:48:30;99375.38;;;47.31;20.74
11172;BME280;5642;50.830;12.082;2023-06-10T08:51:00;99383.25;;;47.13;20.59
11172;BME280;5642;50.830;12.082;2023-06-10T08:53:32;99379.88;;;47.22;21.03
11172;BME280;5642;50.830;12.082;2023-06-10T08:56:00;99385.25;;;47.08;21.02
11172;BME280;5642;50.830;12.082;2023-06-10T08:58:29;99382.44;;;47.13;20.85
11172;BME280;5642;50.830;12.082;2023-06-10T09:00:58;99376.03;;;47.18;20.57
11172;BME280;5642;50.830;12.082;2023-06-10T09:03:26;99389.69;;;47.09;21.14
11172;BME280;5642;50.830;12.082;2023-06-10T09:05:53;99375.16;;;47.22;21.04
11172;BME280;5642;50.830;12.082;2023-06-10T09:08:21;99376.97;;;47.42;20.73
11172;BME280;5642;50.830;12.082;2023-06-10T09:10:47;99365.97;;;47.27;20.51
11172;BME280;5642;50.830;12.082;2023-06-10T09:13:15;99374.13;;;47.47;20.38
11172;BME280;5642;50.830;12.082;2023-06-10T09:15:44;99377.44;;;47.83;20.38
11172;BME280;5642;50.830;12.082;2023-06-10T09:18:14;99374.97;;;48.10;20.27
11172;BME280;5642;50.830;12.082;2023-06-10T09:20:42;99384.56;;;48.18;20.21
11172;BME280;5642;50.830;12.082;2023-06-10T09:23:09;99379.72;;;48.05;19.95
11172;BME280;5642;50.830;12.082;2023-06-10T09:25:37;99381.88;;;48.13;19.89
11172;BME280;5642;50.830;12.082;2023-06-10T09:28:04;99374.28;;;47.95;20.04
11172;BME280;5642;50.830;12.082;2023-06-10T09:30:33;99384.25;;;47.67;19.74
11172;BME280;5642;50.830;12.082;2023-06-10T09:33:10;99376.75;;;47.33;20.00
11172;BME280;5642;50.830;12.082;2023-06-10T09:35:36;99381.97;;;47.01;20.49
11172;BME280;5642;50.830;12.082;2023-06-10T09:38:08;99387.41;;;46.57;20.34
11172;BME280;5642;50.830;12.082;2023-06-10T09:40:48;99395.31;;;46.24;20.10
11172;BME280;5642;50.830;12.082;2023-06-10T09:43:14;99379.59;;;45.89;20.69
11172;BME280;5642;50.830;12.082;2023-06-10T09:45:40;99382.91;;;45.31;20.37
11172;BME280;5642;50.830;12.082;2023-06-10T09:48:06;99376.25;;;44.39;20.82
11172;BME280;5642;50.830;12.082;2023-06-10T09:50:33;99380.22;;;44.11;20.97
11172;BME280;5642;50.830;12.082;2023-06-10T09:53:02;99386.34;;;43.49;21.40
11172;BME280;5642;50.830;12.082;2023-06-10T09:55:33;99378.59;;;42.92;21.41
11172;BME280;5642;50.830;12.082;2023-06-10T09:58:01;99367.50;;;42.82;21.22
11172;BME280;5642;50.830;12.082;2023-06-10T10:00:27;99372.28;;;42.70;21.58
11172;BME280;5642;50.830;12.082;2023-06-10T10:02:53;99379.28;;;42.34;21.86
11172;BME280;5642;50.830;12.082;2023-06-10T10:05:21;99379.16;;;42.29;21.66
11172;BME280;5642;50.830;12.082;2023-06-10T10:07:48;99366.06;;;42.58;21.64
11172;BME280;5642;50.830;12.082;2023-06-10T10:10:20;99372.16;;;42.60;21.98
11172;BME280;5642;50.830;12.082;2023-06-10T10:12:47;99380.09;;;42.78;21.98
11172;BME280;5642;50.830;12.082;2023-06-10T10:15:16;99369.88;;;43.01;21.74
11172;BME280;5642;50.830;12.082;2023-06-10T10:20:29;99357.09;;;43.16;21.63
11172;BME280;5642;50.830;12.082;2023-06-10T10:22:58;99368.47;;;43.20;21.56
11172;BME280;5642;50.830;12.082;2023-06-10T10:25:31;99362.97;;;43.25;21.51
11172;BME280;5642;50.830;12.082;2023-06-10T10:28:09;99350.59;;;43.01;21.51
11172;BME280;5642;50.830;12.082;2023-06-10T10:30:46;99362.03;;;42.66;21.24
11172;BME280;5642;50.830;12.082;2023-06-10T10:33:40;99357.59;;;42.21;21.91
11172;BME280;5642;50.830;12.082;2023-06-10T10:36:15;99357.06;;;41.86;21.97
11172;BME280;5642;50.830;12.082;2023-06-10T10:38:43;99333.50;;;41.73;22.37
11172;BME280;5642;50.830;12.082;2023-06-10T10:41:12;99338.50;;;41.76;22.06
11172;BME280;5642;50.830;12.082;2023-06-10T10:43:38;99339.91;;;41.78;21.79
11172;BME280;5642;50.830;12.082;2023-06-10T10:46:13;99325.75;;;41.70;22.16
11172;BME280;5642;50.830;12.082;2023-06-10T10:48:41;99343.97;;;41.42;22.15
11172;BME280;5642;50.830;12.082;2023-06-10T10:51:11;99336.47;;;40.64;22.06
11172;BME280;5642;50.830;12.082;2023-06-10T10:53:40;99342.56;;;39.80;22.16
11172;BME280;5642;50.830;12.082;2023-06-10T10:56:15;99354.31;;;39.22;22.40
11172;BME280;5642;50.830;12.082;2023-06-10T10:59:04;99346.28;;;38.79;22.59
11172;BME280;5642;50.830;12.082;2023-06-10T11:01:43;99323.56;;;38.90;22.58
11172;BME280;5642;50.830;12.082;2023-06-10T11:04:12;99331.09;;;39.36;22.84
11172;BME280;5642;50.830;12.082;2023-06-10T11:06:39;99334.47;;;39.62;22.53
11172;BME280;5642;50.830;12.082;2023-06-10T11:09:25;99326.97;;;39.69;22.52
11172;BME280;5642;50.830;12.082;2023-06-10T11:11:57;99332.59;;;39.85;22.57
11172;BME280;5642;50.830;12.082;2023-06-10T11:14:28;99334.88;;;40.00;22.45
11172;BME280;5642;50.830;12.082;2023-06-10T11:16:59;99298.47;;;40.05;22.42
11172;BME280;5642;50.830;12.082;2023-06-10T11:19:33;99333.00;;;40.29;22.19
11172;BME280;5642;50.830;12.082;2023-06-10T11:22:06;99314.19;;;40.09;22.29
11172;BME280;5642;50.830;12.082;2023-06-10T11:24:32;99328.66;;;39.93;22.33
11172;BME280;5642;50.830;12.082;2023-06-10T11:27:17;99325.91;;;39.70;21.91
11172;BME280;5642;50.830;12.082;2023-06-10T11:32:31;99320.91;;;39.02;21.62
11172;BME280;5642;50.830;12.082;2023-06-10T11:34:58;99334.50;;;38.49;21.47
11172;BME280;5642;50.830;12.082;2023-06-10T11:37:27;99316.28;;;37.56;21.60
11172;BME280;5642;50.830;12.082;2023-06-10T11:39:54;99298.66;;;36.65;21.63
11172;BME280;5642;50.830;12.082;2023-06-10T11:42:24;99323.69;;;35.91;22.01
11172;BME280;5642;50.830;12.082;2023-06-10T11:44:52;99309.47;;;35.16;21.93
11172;BME280;5642;50.830;12.082;2023-06-10T11:47:19;99315.16;;;34.54;21.98
11172;BME280;5642;50.830;12.082;2023-06-10T11:49:55;99292.69;;;33.91;22.21
11172;BME280;5642;50.830;12.082;2023-06-10T11:52:32;99317.56;;;33.60;22.39
11172;BME280;5642;50.830;12.082;2023-06-10T11:54:59;99312.84;;;33.20;22.36
11172;BME280;5642;50.830;12.082;2023-06-10T11:57:26;99329.94;;;32.78;22.72
11172;BME280;5642;50.830;12.082;2023-06-10T11:59:52;99327.13;;;32.35;22.98
11172;BME280;5642;50.830;12.082;2023-06-10T12:02:18;99319.66;;;31.93;22.99
11172;BME280;5642;50.830;12.082;2023-06-10T12:04:45;99317.94;;;31.63;23.15
11172;BME280;5642;50.830;12.082;2023-06-10T12:07:18;99329.88;;;31.54;23.09
11172;BME280;5642;50.830;12.082;2023-06-10T12:09:45;99328.81;;;31.40;23.19
11172;BME280;5642;50.830;12.082;2023-06-10T12:12:11;99325.22;;;31.25;23.20
11172;BME280;5642;50.830;12.082;2023-06-10T12:14:54;99326.03;;;31.10;23.48
11172;BME280;5642;50.830;12.082;2023-06-10T12:20:23;99321.59;;;30.87;23.73
11172;BME280;5642;50.830;12.082;2023-06-10T12:22:49;99321.13;;;30.83;23.37
11172;BME280;5642;50.830;12.082;2023-06-10T12:25:16;99313.91;;;30.76;23.41
11172;BME280;5642;50.830;12.082;2023-06-10T12:27:52;99322.94;;;30.68;23.83
11172;BME280;5642;50.830;12.082;2023-06-10T12:30:20;99316.72;;;30.59;23.94
11172;BME280;5642;50.830;12.082;2023-06-10T12:32:47;99302.91;;;30.54;23.95
11172;BME280;5642;50.830;12.082;2023-06-10T12:35:19;99320.72;;;30.63;23.94
11172;BME280;5642;50.830;12.082;2023-06-10T12:38:04;99329.22;;;30.60;24.02
11172;BME280;5642;50.830;12.082;2023-06-10T12:40:41;99315.09;;;30.42;24.08
11172;BME280;5642;50.830;12.082;2023-06-10T12:43:11;99315.78;;;30.36;24.33
11172;BME280;5642;50.830;12.082;2023-06-10T12:45:38;99323.44;;;30.32;24.35
11172;BME280;5642;50.830;12.082;2023-06-10T12:48:24;99328.56;;;30.19;24.09
11172;BME280;5642;50.830;12.082;2023-06-10T12:50:59;99309.53;;;30.05;24.67
11172;BME280;5642;50.830;12.082;2023-06-10T12:53:26;99323.72;;;29.98;24.38
11172;BME280;5642;50.830;12.082;2023-06-10T12:55:53;99318.00;;;29.85;24.65
11172;BME280;5642;50.830;12.082;2023-06-10T12:58:25;99312.28;;;29.80;24.73
11172;BME280;5642;50.830;12.082;2023-06-10T13:00:51;99308.44;;;29.75;24.97
11172;BME280;5642;50.830;12.082;2023-06-10T13:03:21;99306.19;;;29.78;24.78
11172;BME280;5642;50.830;12.082;2023-06-10T13:05:48;99299.47;;;29.82;24.30
11172;BME280;5642;50.830;12.082;2023-06-10T13:08:14;99298.75;;;29.88;24.69
11172;BME280;5642;50.830;12.082;2023-06-10T13:10:40;99306.03;;;29.96;24.42
11172;BME280;5642;50.830;12.082;2023-06-10T13:13:06;99306.34;;;30.01;24.53
11172;BME280;5642;50.830;12.082;2023-06-10T13:15:38;99317.28;;;30.08;24.63